createdAt,value
2023-05-25T00:02:04.655Z,99.90
2023-05-25T00:05:10.940Z,99.90
2023-05-25T00:08:14.308Z,99.90
2023-05-25T00:11:19.509Z,99.90
2023-05-25T00:14:22.902Z,99.90
2023-05-25T00:17:31.923Z,99.90
2023-05-25T00:20:36.718Z,99.90
2023-05-25T00:23:39.983Z,99.90
2023-05-25T00:26:46.177Z,99.90
2023-05-25T00:29:49.966Z,99.90
2023-05-25T00:32:54.037Z,99.90
2023-05-25T00:36:00.176Z,99.90
2023-05-25T00:39:03.496Z,99.90
2023-05-25T00:42:08.148Z,99.90
2023-05-25T00:45:12.582Z,99.90
2023-05-25T00:48:16.666Z,99.90
2023-05-25T00:51:21.409Z,99.90
2023-05-25T00:54:24.688Z,99.90
2023-05-25T00:57:34.269Z,99.90
2023-05-25T01:00:39.868Z,99.90
2023-05-25T01:03:46.743Z,99.90
2023-05-25T01:06:53.435Z,99.90
2023-05-25T01:10:01.620Z,99.90
2023-05-25T01:13:07.839Z,99.90
2023-05-25T01:16:11.756Z,99.90
2023-05-25T01:19:18.811Z,99.90
2023-05-25T01:22:30.154Z,99.90
2023-05-25T01:25:40.077Z,99.90
2023-05-25T01:28:47.834Z,99.90
2023-05-25T01:31:53.066Z,99.90
2023-05-25T01:34:59.202Z,99.90
2023-05-25T01:38:04.107Z,99.90
2023-05-25T01:41:07.418Z,99.90
2023-05-25T01:44:11.048Z,99.90
2023-05-25T01:47:23.004Z,99.90
2023-05-25T01:50:40.609Z,99.90
2023-05-25T01:53:53.739Z,99.90
2023-05-25T01:57:01.369Z,99.90
2023-05-25T02:00:05.840Z,99.90
2023-05-25T02:03:29.548Z,99.90
2023-05-25T02:06:32.846Z,99.90
2023-05-25T02:09:43.537Z,99.90
2023-05-25T02:12:48.241Z,99.90
2023-05-25T02:15:51.681Z,99.90
2023-05-25T02:18:58.054Z,99.90
2023-05-25T02:22:01.338Z,99.90
2023-05-25T02:25:06.635Z,99.90
2023-05-25T02:28:09.955Z,99.90
2023-05-25T02:31:13.257Z,99.90
2023-05-25T02:34:16.590Z,99.90
2023-05-25T02:37:19.995Z,99.90
2023-05-25T02:40:25.953Z,99.90
2023-05-25T02:43:29.890Z,99.90
2023-05-25T02:46:33.828Z,99.90
2023-05-25T02:49:37.799Z,99.90
2023-05-25T02:52:41.120Z,99.90
2023-05-25T02:55:46.370Z,99.90
2023-05-25T02:58:54.552Z,99.90
2023-05-25T03:02:04.333Z,99.90
2023-05-25T03:05:08.812Z,99.90
2023-05-25T03:08:13.062Z,99.90
2023-05-25T03:11:17.854Z,99.90
2023-05-25T03:14:22.141Z,99.90
2023-05-25T03:17:31.748Z,99.90
2023-05-25T03:20:35.263Z,99.90
2023-05-25T03:23:38.660Z,99.90
2023-05-25T03:26:46.184Z,99.90
2023-05-25T03:29:51.206Z,99.90
2023-05-25T03:32:54.541Z,99.90
2023-05-25T03:35:58.261Z,99.90
2023-05-25T03:39:01.587Z,99.90
2023-05-25T03:42:07.558Z,99.90
2023-05-25T03:45:11.935Z,99.90
2023-05-25T03:48:17.321Z,99.90
2023-05-25T03:51:20.971Z,99.90
2023-05-25T03:54:24.271Z,99.90
2023-05-25T03:57:29.166Z,99.90
2023-05-25T04:00:32.496Z,99.90
2023-05-25T04:03:36.289Z,99.90
2023-05-25T04:06:40.225Z,99.90
2023-05-25T04:09:44.052Z,99.90
2023-05-25T04:12:49.047Z,99.90
2023-05-25T04:15:52.896Z,99.90
2023-05-25T04:18:59.566Z,99.90
2023-05-25T04:22:03.022Z,99.90
2023-05-25T04:25:07.476Z,99.90
2023-05-25T04:28:12.679Z,99.90
2023-05-25T04:31:51.638Z,99.90
2023-05-25T04:35:14.956Z,99.90
2023-05-25T04:38:21.555Z,99.90
2023-05-25T04:41:25.898Z,99.90
2023-05-25T04:44:34.559Z,99.90
2023-05-25T04:47:41.316Z,99.90
2023-05-25T04:50:45.285Z,99.90
2023-05-25T04:53:48.840Z,99.90
2023-05-25T04:56:52.396Z,99.90
2023-05-25T04:59:58.291Z,99.90
2023-05-25T05:03:02.093Z,99.90
2023-05-25T05:06:06.584Z,99.90
2023-05-25T05:09:10.295Z,99.90
2023-05-25T05:12:14.387Z,99.90
2023-05-25T05:15:25.113Z,99.90
2023-05-25T05:18:29.389Z,99.90
2023-05-25T05:21:34.125Z,99.90
2023-05-25T05:24:40.821Z,99.90
2023-05-25T05:27:45.508Z,99.90
2023-05-25T05:30:56.162Z,99.90
2023-05-25T05:33:59.724Z,99.90
2023-05-25T05:37:03.193Z,99.90
2023-05-25T05:40:07.889Z,99.90
2023-05-25T05:43:14.215Z,99.90
2023-05-25T05:46:19.052Z,99.90
2023-05-25T05:49:22.586Z,99.90
2023-05-25T05:52:25.918Z,99.90
2023-05-25T05:55:29.281Z,99.90
2023-05-25T05:58:33.336Z,99.90
2023-05-25T06:01:38.588Z,99.90
2023-05-25T06:04:42.414Z,99.90
2023-05-25T06:07:46.154Z,99.90
2023-05-25T06:10:49.834Z,99.90
2023-05-25T06:13:53.059Z,99.90
2023-05-25T06:16:58.066Z,99.90
2023-05-25T06:20:01.815Z,99.90
2023-05-25T06:23:05.374Z,99.90
2023-05-25T06:26:09.441Z,99.90
2023-05-25T06:29:16.123Z,99.90
2023-05-25T06:32:21.790Z,99.90
2023-05-25T06:35:25.329Z,99.90
2023-05-25T06:38:30.056Z,99.90
2023-05-25T06:41:33.934Z,99.90
2023-05-25T06:44:38.973Z,99.90
2023-05-25T06:47:46.514Z,99.90
2023-05-25T06:50:49.974Z,99.90
2023-05-25T06:53:53.270Z,99.90
2023-05-25T06:56:56.789Z,99.90
2023-05-25T07:00:00.053Z,99.90
2023-05-25T07:03:05.013Z,99.90
2023-05-25T07:06:09.079Z,99.90
2023-05-25T07:09:13.605Z,99.90
2023-05-25T07:12:16.811Z,99.90
2023-05-25T07:15:21.792Z,99.90
2023-05-25T07:18:27.332Z,99.90
2023-05-25T07:21:33.684Z,99.90
2023-05-25T07:24:36.965Z,99.90
2023-05-25T07:27:40.322Z,99.90
2023-05-25T07:30:43.672Z,99.90
2023-05-25T07:33:48.440Z,99.90
2023-05-25T07:36:51.774Z,99.90
2023-05-25T07:39:55.125Z,99.90
2023-05-25T07:42:58.607Z,99.90
2023-05-25T07:46:02.414Z,99.90
2023-05-25T07:49:12.133Z,99.90
2023-05-25T07:52:15.491Z,99.90
2023-05-25T07:55:19.197Z,99.90
2023-05-25T07:58:22.671Z,99.90
2023-05-25T08:01:27.046Z,99.90
2023-05-25T08:04:32.345Z,99.90
2023-05-25T08:07:35.841Z,99.90
2023-05-25T08:10:39.206Z,99.90
2023-05-25T08:13:43.005Z,99.90
2023-05-25T08:16:46.349Z,99.90
2023-05-25T08:19:51.349Z,99.90
2023-05-25T08:22:54.845Z,99.90
2023-05-25T08:25:58.908Z,99.90
2023-05-25T08:29:02.493Z,99.90
2023-05-25T08:32:06.180Z,99.90
2023-05-25T08:35:14.170Z,99.90
2023-05-25T08:38:17.636Z,99.90
2023-05-25T08:41:21.413Z,99.90
2023-05-25T08:44:24.938Z,99.90
2023-05-25T08:47:32.650Z,99.90
2023-05-25T08:50:39.414Z,99.90
2023-05-25T08:53:44.526Z,99.90
2023-05-25T08:56:51.719Z,99.90
2023-05-25T09:00:01.771Z,99.90
2023-05-25T09:03:12.146Z,99.90
2023-05-25T09:06:18.213Z,99.90
2023-05-25T09:09:21.632Z,99.90
2023-05-25T09:12:25.340Z,99.90
2023-05-25T09:15:29.330Z,99.90
2023-05-25T09:18:32.673Z,99.90
2023-05-25T09:21:39.587Z,99.90
2023-05-25T09:24:44.141Z,99.90
2023-05-25T09:27:47.656Z,99.90
2023-05-25T09:30:51.808Z,99.90
2023-05-25T09:34:00.325Z,99.90
2023-05-25T09:37:12.926Z,99.90
2023-05-25T09:40:17.604Z,99.90
2023-05-25T09:43:36.276Z,99.90
2023-05-25T09:46:44.873Z,99.90
2023-05-25T09:49:50.609Z,99.90
2023-05-25T09:53:00.992Z,99.90
2023-05-25T09:56:04.515Z,99.90
2023-05-25T09:59:08.116Z,99.90
2023-05-25T10:02:11.431Z,99.90
2023-05-25T10:05:14.767Z,99.90
2023-05-25T10:08:23.420Z,99.90
2023-05-25T10:11:28.369Z,99.90
2023-05-25T10:14:33.115Z,99.90
2023-05-25T10:17:39.341Z,99.90
2023-05-25T10:20:44.059Z,99.90
2023-05-25T10:23:51.999Z,99.90
2023-05-25T10:26:58.037Z,99.90
2023-05-25T10:30:02.949Z,99.90
2023-05-25T10:33:07.363Z,99.90
2023-05-25T10:36:13.451Z,99.90
2023-05-25T10:39:21.074Z,99.80
2023-05-25T10:42:24.787Z,15.10
2023-05-25T10:45:29.063Z,90.10
2023-05-25T10:48:38.799Z,92.40
2023-05-25T10:51:43.826Z,62.80
2023-05-25T10:54:49.969Z,1.00
2023-05-25T10:58:09.032Z,72.10
2023-05-25T11:01:14.079Z,67.20
2023-05-25T11:04:18.261Z,99.90
2023-05-25T11:07:23.386Z,98.70
2023-05-25T11:11:01.555Z,99.90
2023-05-25T11:14:04.882Z,99.90
2023-05-25T11:17:11.563Z,99.90
2023-05-25T11:20:34.147Z,92.50
2023-05-25T11:23:41.025Z,72.50
2023-05-25T11:27:00.940Z,54.80
2023-05-25T11:30:04.548Z,71.30
2023-05-25T11:33:09.044Z,99.90
2023-05-25T11:36:15.418Z,52.10
2023-05-25T11:39:23.497Z,1.00
2023-05-25T11:42:28.625Z,1.00
2023-05-25T11:45:33.415Z,1.00
2023-05-25T11:48:36.784Z,1.00
2023-05-25T11:51:40.184Z,1.00
2023-05-25T11:54:43.896Z,10.10
2023-05-25T11:57:48.806Z,62.00
2023-05-25T12:00:52.781Z,25.20
2023-05-25T12:03:57.004Z,1.00
2023-05-25T12:07:04.366Z,1.00
2023-05-25T12:10:08.830Z,1.00
2023-05-25T12:13:14.648Z,1.00
2023-05-25T12:16:17.988Z,1.00
2023-05-25T12:19:22.309Z,99.90
2023-05-25T12:22:25.590Z,99.90
2023-05-25T12:25:38.748Z,99.90
2023-05-25T12:29:12.011Z,99.90
2023-05-25T12:32:15.567Z,99.90
2023-05-25T12:35:18.790Z,99.90
2023-05-25T12:38:22.863Z,99.90
2023-05-25T12:41:26.358Z,99.90
2023-05-25T12:44:32.377Z,99.90
2023-05-25T12:47:35.866Z,99.90
2023-05-25T12:50:39.413Z,99.90
2023-05-25T12:53:50.286Z,99.90
2023-05-25T12:56:56.711Z,99.90
2023-05-25T13:00:01.402Z,99.90
2023-05-25T13:03:05.365Z,99.90
2023-05-25T13:06:09.051Z,99.90
2023-05-25T13:09:14.826Z,99.90
2023-05-25T13:12:18.302Z,99.90
2023-05-25T13:15:23.199Z,99.90
2023-05-25T13:18:26.583Z,99.90
2023-05-25T13:21:29.965Z,99.90
2023-05-25T13:24:33.581Z,99.90
2023-05-25T13:27:37.747Z,99.90
2023-05-25T13:30:44.226Z,99.90
2023-05-25T13:33:47.688Z,99.90
2023-05-25T13:36:50.993Z,99.90
2023-05-25T13:39:54.350Z,99.90
2023-05-25T13:42:57.582Z,99.90
2023-05-25T13:46:02.457Z,99.90
2023-05-25T13:49:06.449Z,99.90
2023-05-25T13:52:10.286Z,99.90
2023-05-25T13:55:13.656Z,99.90
2023-05-25T13:58:16.951Z,99.90
2023-05-25T14:01:21.941Z,99.90
2023-05-25T14:04:25.640Z,99.90
2023-05-25T14:07:28.896Z,99.90
2023-05-25T14:10:32.239Z,99.90
2023-05-25T14:13:36.945Z,99.90
2023-05-25T14:16:41.944Z,99.90
2023-05-25T14:19:45.338Z,99.90
2023-05-25T14:22:48.694Z,99.90
2023-05-25T14:25:51.972Z,99.90
2023-05-25T14:28:55.743Z,99.90
2023-05-25T14:32:01.197Z,99.90
2023-05-25T14:35:04.766Z,99.90
2023-05-25T14:38:08.165Z,99.90
2023-05-25T14:41:11.532Z,99.90
2023-05-25T14:44:15.510Z,99.90
2023-05-25T14:47:20.978Z,99.90
2023-05-25T14:50:24.316Z,99.90
2023-05-25T14:53:27.686Z,99.90
2023-05-25T14:56:31.000Z,99.90
2023-05-25T14:59:34.440Z,99.90
2023-05-25T15:02:39.209Z,99.90
2023-05-25T15:05:42.886Z,99.90
2023-05-25T15:08:46.274Z,99.90
2023-05-25T15:11:49.566Z,99.90
2023-05-25T15:14:52.890Z,99.90
2023-05-25T15:17:57.650Z,99.90
2023-05-25T15:21:01.516Z,99.90
2023-05-25T15:24:04.855Z,99.90
2023-05-25T15:27:09.155Z,99.90
2023-05-25T15:30:13.102Z,99.90
2023-05-25T15:33:17.752Z,99.90
2023-05-25T15:36:21.167Z,99.90
2023-05-25T15:39:24.397Z,99.90
2023-05-25T15:42:27.643Z,99.90
2023-05-25T15:45:31.128Z,99.90
2023-05-25T15:48:35.964Z,99.90
2023-05-25T15:51:43.859Z,99.90
2023-05-25T15:54:47.165Z,99.90
2023-05-25T15:57:50.434Z,99.90
2023-05-25T16:00:53.731Z,99.90
2023-05-25T16:03:59.174Z,99.90
2023-05-25T16:07:02.822Z,99.90
2023-05-25T16:10:07.362Z,99.90
2023-05-25T16:13:10.739Z,99.90
2023-05-25T16:16:14.150Z,99.90
2023-05-25T16:19:18.914Z,99.90
2023-05-25T16:22:22.283Z,99.90
2023-05-25T16:25:25.618Z,99.90
2023-05-25T16:28:28.932Z,99.90
2023-05-25T16:31:32.336Z,99.90
2023-05-25T16:34:37.024Z,1.00
2023-05-25T16:37:40.289Z,1.00
2023-05-25T16:40:43.634Z,1.00
2023-05-25T16:43:47.039Z,5.90
2023-05-25T16:46:50.828Z,12.10
2023-05-25T16:49:55.798Z,34.00
2023-05-25T16:52:59.099Z,44.20
2023-05-25T16:56:02.599Z,88.30
2023-05-25T16:59:06.766Z,92.20
2023-05-25T17:02:10.085Z,99.50
2023-05-25T17:05:14.841Z,96.70
2023-05-25T17:08:18.270Z,99.90
2023-05-25T17:11:26.221Z,99.90
2023-05-25T17:14:29.727Z,99.90
2023-05-25T17:17:33.136Z,99.90
2023-05-25T17:20:38.245Z,99.90
2023-05-25T17:23:41.654Z,99.90
2023-05-25T17:26:46.487Z,99.90
2023-05-25T17:29:49.834Z,99.90
2023-05-25T17:32:53.842Z,99.90
2023-05-25T17:35:59.667Z,99.90
2023-05-25T17:39:02.967Z,99.90
2023-05-25T17:42:07.568Z,99.90
2023-05-25T17:45:11.969Z,99.90
2023-05-25T17:48:15.413Z,99.90
2023-05-25T17:51:21.709Z,99.90
2023-05-25T17:54:26.002Z,99.90
2023-05-25T17:57:29.366Z,99.90
2023-05-25T18:00:32.885Z,99.90
2023-05-25T18:03:36.596Z,99.90
2023-05-25T18:06:41.726Z,99.90
2023-05-25T18:09:45.064Z,99.90
2023-05-25T18:12:52.095Z,99.90
2023-05-25T18:15:55.876Z,99.90
2023-05-25T18:18:59.290Z,99.90
2023-05-25T18:22:04.364Z,99.90
2023-05-25T18:25:08.537Z,99.90
2023-05-25T18:28:14.796Z,99.90
2023-05-25T18:31:18.399Z,99.90
2023-05-25T18:34:21.936Z,99.90
2023-05-25T18:37:28.988Z,99.90
2023-05-25T18:40:32.649Z,99.90
2023-05-25T18:43:36.323Z,99.90
2023-05-25T18:46:42.353Z,99.90
2023-05-25T18:49:48.582Z,99.90
2023-05-25T18:52:54.013Z,99.90
2023-05-25T18:55:57.756Z,99.90
2023-05-25T18:59:01.342Z,99.90
2023-05-25T19:02:05.009Z,99.90
2023-05-25T19:05:11.550Z,99.90
2023-05-25T19:08:16.840Z,99.90
2023-05-25T19:11:20.897Z,99.90
2023-05-25T19:14:25.065Z,99.90
2023-05-25T19:17:28.902Z,99.90
2023-05-25T19:20:33.686Z,99.90
2023-05-25T19:23:39.043Z,99.90
2023-05-25T19:26:42.566Z,99.90
2023-05-25T19:29:47.198Z,99.90
2023-05-25T19:32:50.732Z,99.90
2023-05-25T19:35:54.307Z,99.90
2023-05-25T19:38:59.424Z,99.90
2023-05-25T19:42:03.287Z,99.90
2023-05-25T19:45:07.696Z,99.90
2023-05-25T19:48:11.418Z,99.90
2023-05-25T19:51:15.230Z,99.90
2023-05-25T19:54:20.356Z,99.90
2023-05-25T19:57:26.168Z,99.90
2023-05-25T20:00:29.775Z,99.90
2023-05-25T20:03:33.498Z,99.90
2023-05-25T20:06:37.613Z,99.90
2023-05-25T20:09:43.026Z,99.90
2023-05-25T20:12:46.512Z,99.90
2023-05-25T20:15:50.234Z,99.90
2023-05-25T20:18:53.937Z,99.90
2023-05-25T20:21:58.113Z,99.90
2023-05-25T20:25:03.236Z,99.90
2023-05-25T20:28:06.898Z,99.90
2023-05-25T20:31:10.587Z,99.90
2023-05-25T20:34:16.678Z,99.90
2023-05-25T20:37:20.177Z,99.90
2023-05-25T20:40:26.730Z,99.90
2023-05-25T20:43:30.382Z,99.90
2023-05-25T20:46:34.204Z,99.90
2023-05-25T20:49:37.709Z,99.90
2023-05-25T20:52:41.707Z,99.90
2023-05-25T20:55:47.326Z,99.90
2023-05-25T20:58:51.195Z,99.90
2023-05-25T21:01:54.969Z,99.90
2023-05-25T21:04:58.451Z,99.90
2023-05-25T21:08:05.953Z,99.90
2023-05-25T21:11:10.914Z,99.90
2023-05-25T21:14:14.210Z,99.90
2023-05-25T21:17:19.618Z,99.90
2023-05-25T21:20:23.167Z,99.90
2023-05-25T21:23:28.586Z,99.90
2023-05-25T21:26:33.349Z,99.90
2023-05-25T21:29:36.786Z,99.90
2023-05-25T21:32:40.180Z,99.90
2023-05-25T21:35:43.840Z,99.90
2023-05-25T21:38:47.434Z,99.90
2023-05-25T21:41:53.740Z,99.90
2023-05-25T21:44:57.096Z,99.90
2023-05-25T21:48:00.492Z,99.90
2023-05-25T21:51:04.120Z,99.90
2023-05-25T21:54:07.698Z,99.90
2023-05-25T21:57:12.636Z,99.90
2023-05-25T22:00:17.706Z,99.90
2023-05-25T22:03:21.521Z,99.90
2023-05-25T22:06:24.960Z,99.90
2023-05-25T22:09:30.195Z,99.90
2023-05-25T22:12:34.978Z,99.90
2023-05-25T22:15:38.302Z,99.90
2023-05-25T22:18:41.621Z,99.90
2023-05-25T22:21:44.904Z,99.90
2023-05-25T22:24:48.327Z,99.90
2023-05-25T22:27:53.146Z,99.90
2023-05-25T22:30:56.457Z,99.90
2023-05-25T22:39:01.846Z,99.90
2023-05-25T22:42:06.656Z,99.90
2023-05-25T22:45:12.179Z,99.90
2023-05-25T22:48:15.604Z,99.90
2023-05-25T22:51:18.897Z,99.90
2023-05-25T22:54:22.122Z,99.90
2023-05-25T22:57:25.459Z,99.90
2023-05-25T23:00:30.279Z,99.90
2023-05-25T23:03:33.736Z,99.90
2023-05-25T23:06:37.196Z,99.90
2023-05-25T23:09:40.532Z,99.90
2023-05-25T23:12:43.789Z,99.90
2023-05-25T23:15:48.644Z,99.90
2023-05-25T23:18:51.877Z,99.90
2023-05-25T23:21:56.479Z,99.90
2023-05-25T23:24:59.769Z,99.90
2023-05-25T23:28:02.976Z,99.90
2023-05-25T23:31:07.806Z,99.90
2023-05-25T23:34:11.038Z,99.90
2023-05-25T23:37:14.366Z,99.90
2023-05-25T23:40:17.696Z,99.90
2023-05-25T23:43:21.169Z,99.90
2023-05-25T23:46:26.171Z,99.90
2023-05-25T23:49:29.600Z,99.90
2023-05-25T23:52:32.902Z,99.90
2023-05-25T23:55:36.258Z,99.90
2023-05-25T23:58:39.528Z,99.90
